sensor_id;sensor_type;location;lat;lon;timestamp;P1;durP1;ratioP1;P2;durP2;ratioP2
24137;SDS011;17947;50.672;6.076;2022-10-31T00:01:37;2.08;;;1.83;;
24137;SDS011;17947;50.672;6.076;2022-10-31T00:04:03;2.13;;;1.92;;
24137;SDS011;17947;50.672;6.076;2022-10-31T00:06:30;2.97;;;2.28;;
24137;SDS011;17947;50.672;6.076;2022-10-31T00:08:59;3.10;;;2.38;;
24137;SDS011;17947;50.672;6.076;2022-10-31T00:11:26;2.15;;;1.90;;
24137;SDS011;17947;50.672;6.076;2022-10-31T00:13:52;2.97;;;2.17;;
24137;SDS011;17947;50.672;6.076;2022-10-31T00:16:21;2.40;;;2.00;;
24137;SDS011;17947;50.672;6.076;2022-10-31T00:18:48;2.72;;;1.92;;
24137;SDS011;17947;50.672;6.076;2022-10-31T00:21:14;3.00;;;2.17;;
24137;SDS011;17947;50.672;6.076;2022-10-31T00:23:40;2.20;;;1.92;;
24137;SDS011;17947;50.672;6.076;2022-10-31T00:26:06;2.97;;;2.00;;
24137;SDS011;17947;50.672;6.076;2022-10-31T00:28:33;3.90;;;2.10;;
24137;SDS011;17947;50.672;6.076;2022-10-31T00:31:00;3.00;;;1.83;;
24137;SDS011;17947;50.672;6.076;2022-10-31T00:33:27;2.35;;;1.90;;
24137;SDS011;17947;50.672;6.076;2022-10-31T00:35:53;2.90;;;2.15;;
24137;SDS011;17947;50.672;6.076;2022-10-31T00:38:19;2.10;;;1.90;;
24137;SDS011;17947;50.672;6.076;2022-10-31T00:40:45;2.70;;;1.88;;
24137;SDS011;17947;50.672;6.076;2022-10-31T00:43:11;2.40;;;2.10;;
24137;SDS011;17947;50.672;6.076;2022-10-31T00:45:37;2.42;;;2.20;;
24137;SDS011;17947;50.672;6.076;2022-10-31T00:48:03;3.58;;;2.20;;
24137;SDS011;17947;50.672;6.076;2022-10-31T00:50:29;2.15;;;1.83;;
24137;SDS011;17947;50.672;6.076;2022-10-31T00:52:55;2.45;;;2.10;;
24137;SDS011;17947;50.672;6.076;2022-10-31T00:55:22;2.63;;;1.77;;
24137;SDS011;17947;50.672;6.076;2022-10-31T00:57:48;2.30;;;2.10;;
24137;SDS011;17947;50.672;6.076;2022-10-31T01:00:15;1.80;;;1.70;;
24137;SDS011;17947;50.672;6.076;2022-10-31T01:02:41;2.35;;;2.10;;
24137;SDS011;17947;50.672;6.076;2022-10-31T01:05:07;2.10;;;1.90;;
24137;SDS011;17947;50.672;6.076;2022-10-31T01:07:37;3.90;;;2.10;;
24137;SDS011;17947;50.672;6.076;2022-10-31T01:10:04;2.05;;;1.83;;
24137;SDS011;17947;50.672;6.076;2022-10-31T01:12:35;2.28;;;1.95;;
24137;SDS011;17947;50.672;6.076;2022-10-31T01:15:01;2.17;;;1.85;;
24137;SDS011;17947;50.672;6.076;2022-10-31T01:17:27;2.30;;;1.92;;
24137;SDS011;17947;50.672;6.076;2022-10-31T01:19:53;2.30;;;2.08;;
24137;SDS011;17947;50.672;6.076;2022-10-31T01:22:19;3.50;;;2.20;;
24137;SDS011;17947;50.672;6.076;2022-10-31T01:24:46;2.72;;;2.10;;
24137;SDS011;17947;50.672;6.076;2022-10-31T01:27:12;2.33;;;2.13;;
24137;SDS011;17947;50.672;6.076;2022-10-31T01:29:38;2.88;;;2.10;;
24137;SDS011;17947;50.672;6.076;2022-10-31T01:32:04;2.40;;;1.95;;
24137;SDS011;17947;50.672;6.076;2022-10-31T01:34:30;2.30;;;2.10;;
24137;SDS011;17947;50.672;6.076;2022-10-31T01:36:56;2.28;;;2.08;;
24137;SDS011;17947;50.672;6.076;2022-10-31T01:39:22;2.50;;;2.00;;
24137;SDS011;17947;50.672;6.076;2022-10-31T01:41:50;2.10;;;1.80;;
24137;SDS011;17947;50.672;6.076;2022-10-31T01:47:29;1.92;;;1.77;;
24137;SDS011;17947;50.672;6.076;2022-10-31T01:49:39;2.72;;;2.10;;
24137;SDS011;17947;50.672;6.076;2022-10-31T01:52:07;2.40;;;2.03;;
24137;SDS011;17947;50.672;6.076;2022-10-31T01:54:37;2.55;;;2.00;;
24137;SDS011;17947;50.672;6.076;2022-10-31T01:57:05;2.08;;;1.80;;
24137;SDS011;17947;50.672;6.076;2022-10-31T01:59:33;3.20;;;2.33;;
24137;SDS011;17947;50.672;6.076;2022-10-31T02:02:01;1.90;;;1.80;;
24137;SDS011;17947;50.672;6.076;2022-10-31T02:04:27;2.75;;;1.92;;
24137;SDS011;17947;50.672;6.076;2022-10-31T02:07:05;2.28;;;1.85;;
24137;SDS011;17947;50.672;6.076;2022-10-31T02:09:34;2.20;;;1.98;;
24137;SDS011;17947;50.672;6.076;2022-10-31T02:12:00;1.73;;;1.63;;
24137;SDS011;17947;50.672;6.076;2022-10-31T02:14:27;3.60;;;2.10;;
24137;SDS011;17947;50.672;6.076;2022-10-31T02:16:53;3.35;;;1.83;;
24137;SDS011;17947;50.672;6.076;2022-10-31T02:22:11;2.20;;;2.00;;
24137;SDS011;17947;50.672;6.076;2022-10-31T02:30:14;1.90;;;1.70;;
24137;SDS011;17947;50.672;6.076;2022-10-31T02:35:41;2.05;;;1.75;;
24137;SDS011;17947;50.672;6.076;2022-10-31T02:41:09;1.88;;;1.70;;
24137;SDS011;17947;50.672;6.076;2022-10-31T02:46:14;3.40;;;2.00;;
24137;SDS011;17947;50.672;6.076;2022-10-31T02:48:45;2.50;;;2.30;;
24137;SDS011;17947;50.672;6.076;2022-10-31T02:51:12;2.30;;;2.10;;
24137;SDS011;17947;50.672;6.076;2022-10-31T02:53:38;2.42;;;1.90;;
24137;SDS011;17947;50.672;6.076;2022-10-31T02:56:14;2.30;;;1.85;;
24137;SDS011;17947;50.672;6.076;2022-10-31T03:03:58;3.38;;;2.00;;
24137;SDS011;17947;50.672;6.076;2022-10-31T03:11:29;2.85;;;2.00;;
24137;SDS011;17947;50.672;6.076;2022-10-31T03:16:31;4.30;;;2.30;;
24137;SDS011;17947;50.672;6.076;2022-10-31T03:19:01;1.98;;;1.80;;
24137;SDS011;17947;50.672;6.076;2022-10-31T03:24:03;2.50;;;1.90;;
24137;SDS011;17947;50.672;6.076;2022-10-31T03:26:30;5.78;;;2.15;;
24137;SDS011;17947;50.672;6.076;2022-10-31T03:29:03;2.42;;;1.90;;
24137;SDS011;17947;50.672;6.076;2022-10-31T03:31:32;2.15;;;1.80;;
24137;SDS011;17947;50.672;6.076;2022-10-31T03:33:59;2.78;;;1.98;;
24137;SDS011;17947;50.672;6.076;2022-10-31T03:36:26;3.03;;;2.20;;
24137;SDS011;17947;50.672;6.076;2022-10-31T03:38:52;2.63;;;1.90;;
24137;SDS011;17947;50.672;6.076;2022-10-31T03:41:20;2.63;;;2.00;;
24137;SDS011;17947;50.672;6.076;2022-10-31T03:44:01;2.67;;;2.13;;
24137;SDS011;17947;50.672;6.076;2022-10-31T03:46:28;2.10;;;1.80;;
24137;SDS011;17947;50.672;6.076;2022-10-31T03:48:54;2.38;;;2.03;;
24137;SDS011;17947;50.672;6.076;2022-10-31T03:51:32;2.53;;;1.92;;
24137;SDS011;17947;50.672;6.076;2022-10-31T03:54:12;2.63;;;2.05;;
24137;SDS011;17947;50.672;6.076;2022-10-31T03:57:00;2.67;;;1.83;;
24137;SDS011;17947;50.672;6.076;2022-10-31T03:59:32;2.13;;;1.90;;
24137;SDS011;17947;50.672;6.076;2022-10-31T04:02:00;2.13;;;1.90;;
24137;SDS011;17947;50.672;6.076;2022-10-31T04:04:28;2.05;;;1.83;;
24137;SDS011;17947;50.672;6.076;2022-10-31T04:06:55;2.47;;;1.80;;
24137;SDS011;17947;50.672;6.076;2022-10-31T04:09:22;2.85;;;2.00;;
24137;SDS011;17947;50.672;6.076;2022-10-31T04:11:51;2.67;;;1.77;;
24137;SDS011;17947;50.672;6.076;2022-10-31T04:14:18;2.63;;;2.10;;
24137;SDS011;17947;50.672;6.076;2022-10-31T04:16:45;2.47;;;2.00;;
24137;SDS011;17947;50.672;6.076;2022-10-31T04:19:11;2.88;;;2.05;;
24137;SDS011;17947;50.672;6.076;2022-10-31T04:21:37;2.20;;;1.88;;
24137;SDS011;17947;50.672;6.076;2022-10-31T04:24:03;2.47;;;2.25;;
24137;SDS011;17947;50.672;6.076;2022-10-31T04:26:30;2.47;;;2.03;;
24137;SDS011;17947;50.672;6.076;2022-10-31T04:28:56;2.78;;;1.88;;
24137;SDS011;17947;50.672;6.076;2022-10-31T04:31:22;3.05;;;2.05;;
24137;SDS011;17947;50.672;6.076;2022-10-31T04:33:48;2.65;;;2.08;;
24137;SDS011;17947;50.672;6.076;2022-10-31T04:36:14;3.08;;;2.03;;
24137;SDS011;17947;50.672;6.076;2022-10-31T04:38:40;3.28;;;2.20;;
24137;SDS011;17947;50.672;6.076;2022-10-31T04:41:06;2.78;;;2.30;;
24137;SDS011;17947;50.672;6.076;2022-10-31T04:43:32;2.40;;;2.13;;
24137;SDS011;17947;50.672;6.076;2022-10-31T04:45:58;2.10;;;1.90;;
24137;SDS011;17947;50.672;6.076;2022-10-31T04:48:24;2.70;;;1.92;;
24137;SDS011;17947;50.672;6.076;2022-10-31T04:50:50;2.42;;;2.20;;
24137;SDS011;17947;50.672;6.076;2022-10-31T04:53:16;2.15;;;1.92;;
24137;SDS011;17947;50.672;6.076;2022-10-31T04:55:42;2.60;;;1.92;;
24137;SDS011;17947;50.672;6.076;2022-10-31T04:58:08;2.25;;;2.00;;
24137;SDS011;17947;50.672;6.076;2022-10-31T05:00:34;2.47;;;2.28;;
24137;SDS011;17947;50.672;6.076;2022-10-31T05:03:00;3.50;;;2.30;;
24137;SDS011;17947;50.672;6.076;2022-10-31T05:05:27;1.77;;;1.67;;
24137;SDS011;17947;50.672;6.076;2022-10-31T05:07:54;2.92;;;1.98;;
24137;SDS011;17947;50.672;6.076;2022-10-31T05:10:21;3.38;;;2.28;;
24137;SDS011;17947;50.672;6.076;2022-10-31T05:12:48;3.00;;;2.25;;
24137;SDS011;17947;50.672;6.076;2022-10-31T05:15:15;4.53;;;2.40;;
24137;SDS011;17947;50.672;6.076;2022-10-31T05:17:41;2.42;;;2.10;;
24137;SDS011;17947;50.672;6.076;2022-10-31T05:20:07;2.50;;;2.25;;
24137;SDS011;17947;50.672;6.076;2022-10-31T05:22:33;2.95;;;2.47;;
24137;SDS011;17947;50.672;6.076;2022-10-31T05:24:59;2.78;;;2.22;;
24137;SDS011;17947;50.672;6.076;2022-10-31T05:27:25;2.63;;;2.08;;
24137;SDS011;17947;50.672;6.076;2022-10-31T05:29:51;2.60;;;2.30;;
24137;SDS011;17947;50.672;6.076;2022-10-31T05:32:17;2.55;;;2.20;;
24137;SDS011;17947;50.672;6.076;2022-10-31T05:34:43;2.55;;;2.35;;
24137;SDS011;17947;50.672;6.076;2022-10-31T05:37:09;2.55;;;2.28;;
24137;SDS011;17947;50.672;6.076;2022-10-31T05:39:35;2.90;;;2.30;;
24137;SDS011;17947;50.672;6.076;2022-10-31T05:42:01;3.22;;;2.20;;
24137;SDS011;17947;50.672;6.076;2022-10-31T05:44:27;2.40;;;2.20;;
24137;SDS011;17947;50.672;6.076;2022-10-31T05:46:53;3.33;;;2.35;;
24137;SDS011;17947;50.672;6.076;2022-10-31T05:49:19;3.60;;;2.60;;
24137;SDS011;17947;50.672;6.076;2022-10-31T05:51:45;2.78;;;2.53;;
24137;SDS011;17947;50.672;6.076;2022-10-31T05:54:11;5.03;;;2.70;;
24137;SDS011;17947;50.672;6.076;2022-10-31T05:56:37;3.22;;;2.70;;
24137;SDS011;17947;50.672;6.076;2022-10-31T05:59:03;3.55;;;2.50;;
24137;SDS011;17947;50.672;6.076;2022-10-31T06:01:29;2.75;;;2.28;;
24137;SDS011;17947;50.672;6.076;2022-10-31T06:03:55;3.78;;;2.60;;
24137;SDS011;17947;50.672;6.076;2022-10-31T06:06:21;3.17;;;2.58;;
24137;SDS011;17947;50.672;6.076;2022-10-31T06:08:47;3.90;;;2.60;;
24137;SDS011;17947;50.672;6.076;2022-10-31T06:11:13;2.85;;;2.53;;
24137;SDS011;17947;50.672;6.076;2022-10-31T06:13:39;3.65;;;2.88;;
24137;SDS011;17947;50.672;6.076;2022-10-31T06:16:05;4.75;;;2.92;;
24137;SDS011;17947;50.672;6.076;2022-10-31T06:18:31;5.28;;;3.15;;
24137;SDS011;17947;50.672;6.076;2022-10-31T06:20:57;3.55;;;3.10;;
24137;SDS011;17947;50.672;6.076;2022-10-31T06:23:23;3.53;;;2.80;;
24137;SDS011;17947;50.672;6.076;2022-10-31T06:25:49;3.72;;;3.15;;
24137;SDS011;17947;50.672;6.076;2022-10-31T06:28:16;4.00;;;3.10;;
24137;SDS011;17947;50.672;6.076;2022-10-31T06:30:42;3.65;;;3.05;;
24137;SDS011;17947;50.672;6.076;2022-10-31T06:33:08;3.92;;;2.88;;
24137;SDS011;17947;50.672;6.076;2022-10-31T06:35:34;3.97;;;3.10;;
24137;SDS011;17947;50.672;6.076;2022-10-31T06:38:00;3.80;;;2.78;;
24137;SDS011;17947;50.672;6.076;2022-10-31T06:40:26;5.80;;;3.30;;
24137;SDS011;17947;50.672;6.076;2022-10-31T06:42:56;3.85;;;2.90;;
24137;SDS011;17947;50.672;6.076;2022-10-31T06:45:22;3.83;;;2.72;;
24137;SDS011;17947;50.672;6.076;2022-10-31T06:47:51;3.83;;;2.95;;
24137;SDS011;17947;50.672;6.076;2022-10-31T06:50:18;3.55;;;2.78;;
24137;SDS011;17947;50.672;6.076;2022-10-31T06:52:49;4.03;;;3.00;;
24137;SDS011;17947;50.672;6.076;2022-10-31T06:55:15;3.70;;;3.00;;
24137;SDS011;17947;50.672;6.076;2022-10-31T06:57:41;3.70;;;2.72;;
24137;SDS011;17947;50.672;6.076;2022-10-31T07:00:07;4.53;;;3.15;;
24137;SDS011;17947;50.672;6.076;2022-10-31T07:02:34;5.30;;;3.17;;
24137;SDS011;17947;50.672;6.076;2022-10-31T07:04:59;4.43;;;3.25;;
24137;SDS011;17947;50.672;6.076;2022-10-31T07:07:25;4.43;;;3.60;;
24137;SDS011;17947;50.672;6.076;2022-10-31T07:09:51;5.18;;;3.00;;
24137;SDS011;17947;50.672;6.076;2022-10-31T07:12:17;4.18;;;3.30;;
24137;SDS011;17947;50.672;6.076;2022-10-31T07:14:43;5.05;;;3.40;;
24137;SDS011;17947;50.672;6.076;2022-10-31T07:17:09;4.93;;;3.20;;
24137;SDS011;17947;50.672;6.076;2022-10-31T07:19:35;4.97;;;3.60;;
24137;SDS011;17947;50.672;6.076;2022-10-31T07:22:01;4.35;;;3.22;;
24137;SDS011;17947;50.672;6.076;2022-10-31T07:24:27;4.07;;;3.22;;
24137;SDS011;17947;50.672;6.076;2022-10-31T07:26:54;4.82;;;3.55;;
24137;SDS011;17947;50.672;6.076;2022-10-31T07:29:20;5.35;;;3.70;;
24137;SDS011;17947;50.672;6.076;2022-10-31T07:31:46;3.85;;;3.30;;
24137;SDS011;17947;50.672;6.076;2022-10-31T07:34:12;4.40;;;3.15;;
24137;SDS011;17947;50.672;6.076;2022-10-31T07:36:38;4.55;;;3.42;;
24137;SDS011;17947;50.672;6.076;2022-10-31T07:39:04;5.50;;;3.72;;
24137;SDS011;17947;50.672;6.076;2022-10-31T07:41:30;5.13;;;3.38;;
24137;SDS011;17947;50.672;6.076;2022-10-31T07:43:56;4.45;;;3.70;;
24137;SDS011;17947;50.672;6.076;2022-10-31T07:46:22;5.38;;;3.47;;
24137;SDS011;17947;50.672;6.076;2022-10-31T07:48:48;4.13;;;3.20;;
24137;SDS011;17947;50.672;6.076;2022-10-31T07:51:14;3.53;;;3.00;;
24137;SDS011;17947;50.672;6.076;2022-10-31T07:53:40;5.15;;;3.78;;
24137;SDS011;17947;50.672;6.076;2022-10-31T07:56:06;4.65;;;3.90;;
24137;SDS011;17947;50.672;6.076;2022-10-31T07:58:32;5.40;;;3.85;;
24137;SDS011;17947;50.672;6.076;2022-10-31T08:00:58;4.82;;;3.40;;
24137;SDS011;17947;50.672;6.076;2022-10-31T08:03:24;4.50;;;3.55;;
24137;SDS011;17947;50.672;6.076;2022-10-31T08:05:50;3.95;;;3.58;;
24137;SDS011;17947;50.672;6.076;2022-10-31T08:08:16;4.40;;;3.60;;
24137;SDS011;17947;50.672;6.076;2022-10-31T08:10:42;4.35;;;3.42;;
24137;SDS011;17947;50.672;6.076;2022-10-31T08:13:12;4.18;;;3.60;;
24137;SDS011;17947;50.672;6.076;2022-10-31T08:15:39;5.45;;;3.70;;
24137;SDS011;17947;50.672;6.076;2022-10-31T08:18:06;4.78;;;3.63;;
24137;SDS011;17947;50.672;6.076;2022-10-31T08:20:36;3.88;;;3.47;;
24137;SDS011;17947;50.672;6.076;2022-10-31T08:23:03;4.80;;;3.63;;
24137;SDS011;17947;50.672;6.076;2022-10-31T08:25:30;4.90;;;3.63;;
24137;SDS011;17947;50.672;6.076;2022-10-31T08:27:56;4.30;;;3.40;;
24137;SDS011;17947;50.672;6.076;2022-10-31T08:30:23;4.82;;;3.47;;
24137;SDS011;17947;50.672;6.076;2022-10-31T08:35:25;4.55;;;3.45;;
24137;SDS011;17947;50.672;6.076;2022-10-31T08:37:52;5.22;;;3.67;;
24137;SDS011;17947;50.672;6.076;2022-10-31T08:40:20;3.65;;;3.28;;
24137;SDS011;17947;50.672;6.076;2022-10-31T08:42:46;4.38;;;3.45;;
24137;SDS011;17947;50.672;6.076;2022-10-31T08:45:12;4.13;;;3.50;;
24137;SDS011;17947;50.672;6.076;2022-10-31T08:47:38;6.13;;;3.67;;
24137;SDS011;17947;50.672;6.076;2022-10-31T08:50:04;5.25;;;3.45;;
24137;SDS011;17947;50.672;6.076;2022-10-31T08:52:30;4.57;;;3.42;;
24137;SDS011;17947;50.672;6.076;2022-10-31T08:54:56;4.63;;;3.33;;
24137;SDS011;17947;50.672;6.076;2022-10-31T08:57:22;3.30;;;3.00;;
24137;SDS011;17947;50.672;6.076;2022-10-31T08:59:48;4.97;;;3.22;;
24137;SDS011;17947;50.672;6.076;2022-10-31T09:02:14;4.50;;;3.42;;
24137;SDS011;17947;50.672;6.076;2022-10-31T09:04:40;5.68;;;3.75;;
24137;SDS011;17947;50.672;6.076;2022-10-31T09:07:06;4.03;;;3.45;;
24137;SDS011;17947;50.672;6.076;2022-10-31T09:09:32;3.65;;;3.05;;
24137;SDS011;17947;50.672;6.076;2022-10-31T09:11:58;5.50;;;3.40;;
24137;SDS011;17947;50.672;6.076;2022-10-31T09:14:24;3.90;;;3.33;;
24137;SDS011;17947;50.672;6.076;2022-10-31T09:16:51;3.67;;;3.13;;
24137;SDS011;17947;50.672;6.076;2022-10-31T09:19:17;4.50;;;3.55;;
24137;SDS011;17947;50.672;6.076;2022-10-31T09:21:43;4.20;;;3.22;;
24137;SDS011;17947;50.672;6.076;2022-10-31T09:24:09;4.68;;;3.25;;
24137;SDS011;17947;50.672;6.076;2022-10-31T09:26:35;3.88;;;3.35;;
24137;SDS011;17947;50.672;6.076;2022-10-31T09:29:01;3.70;;;3.17;;
24137;SDS011;17947;50.672;6.076;2022-10-31T09:31:27;3.95;;;3.25;;
24137;SDS011;17947;50.672;6.076;2022-10-31T09:33:53;5.25;;;3.47;;
24137;SDS011;17947;50.672;6.076;2022-10-31T09:36:19;4.10;;;3.25;;
24137;SDS011;17947;50.672;6.076;2022-10-31T09:38:45;5.00;;;3.38;;
24137;SDS011;17947;50.672;6.076;2022-10-31T09:41:17;5.07;;;3.55;;
24137;SDS011;17947;50.672;6.076;2022-10-31T09:51:41;4.65;;;3.30;;
24137;SDS011;17947;50.672;6.076;2022-10-31T09:54:21;5.57;;;3.38;;
24137;SDS011;17947;50.672;6.076;2022-10-31T09:56:50;4.35;;;3.47;;
24137;SDS011;17947;50.672;6.076;2022-10-31T09:59:24;4.90;;;3.65;;
24137;SDS011;17947;50.672;6.076;2022-10-31T10:01:53;6.13;;;3.42;;
24137;SDS011;17947;50.672;6.076;2022-10-31T10:06:56;4.95;;;3.15;;
24137;SDS011;17947;50.672;6.076;2022-10-31T10:09:24;5.70;;;3.30;;
24137;SDS011;17947;50.672;6.076;2022-10-31T10:14:41;4.35;;;3.08;;
24137;SDS011;17947;50.672;6.076;2022-10-31T10:17:21;6.25;;;3.58;;
24137;SDS011;17947;50.672;6.076;2022-10-31T10:27:35;5.50;;;3.60;;
24137;SDS011;17947;50.672;6.076;2022-10-31T10:30:04;3.58;;;3.03;;
24137;SDS011;17947;50.672;6.076;2022-10-31T10:32:35;5.15;;;3.50;;
24137;SDS011;17947;50.672;6.076;2022-10-31T10:37:49;4.18;;;3.08;;
24137;SDS011;17947;50.672;6.076;2022-10-31T10:40:23;5.18;;;3.50;;
24137;SDS011;17947;50.672;6.076;2022-10-31T10:43:01;4.15;;;2.90;;
24137;SDS011;17947;50.672;6.076;2022-10-31T10:51:29;4.32;;;3.05;;
24137;SDS011;17947;50.672;6.076;2022-10-31T10:54:08;4.50;;;3.00;;
24137;SDS011;17947;50.672;6.076;2022-10-31T10:59:13;4.38;;;2.97;;
24137;SDS011;17947;50.672;6.076;2022-10-31T11:01:40;3.50;;;3.13;;
24137;SDS011;17947;50.672;6.076;2022-10-31T11:07:03;3.97;;;2.92;;
24137;SDS011;17947;50.672;6.076;2022-10-31T11:09:29;5.88;;;3.05;;
24137;SDS011;17947;50.672;6.076;2022-10-31T11:11:56;4.35;;;2.95;;
24137;SDS011;17947;50.672;6.076;2022-10-31T11:14:22;3.28;;;2.80;;
24137;SDS011;17947;50.672;6.076;2022-10-31T11:16:50;4.20;;;3.20;;
24137;SDS011;17947;50.672;6.076;2022-10-31T11:19:21;4.35;;;2.70;;
24137;SDS011;17947;50.672;6.076;2022-10-31T11:21:48;4.00;;;2.50;;
24137;SDS011;17947;50.672;6.076;2022-10-31T11:26:41;3.67;;;2.80;;
24137;SDS011;17947;50.672;6.076;2022-10-31T11:29:21;3.95;;;2.65;;
24137;SDS011;17947;50.672;6.076;2022-10-31T11:31:48;4.15;;;2.92;;
24137;SDS011;17947;50.672;6.076;2022-10-31T11:34:18;3.38;;;2.85;;
24137;SDS011;17947;50.672;6.076;2022-10-31T11:36:46;3.92;;;2.88;;
24137;SDS011;17947;50.672;6.076;2022-10-31T11:39:16;5.68;;;2.97;;
24137;SDS011;17947;50.672;6.076;2022-10-31T11:41:43;5.38;;;3.03;;
24137;SDS011;17947;50.672;6.076;2022-10-31T11:44:25;3.47;;;2.85;;
24137;SDS011;17947;50.672;6.076;2022-10-31T11:46:53;2.78;;;2.50;;
24137;SDS011;17947;50.672;6.076;2022-10-31T11:49:25;2.90;;;2.30;;
24137;SDS011;17947;50.672;6.076;2022-10-31T11:51:54;3.95;;;2.80;;
24137;SDS011;17947;50.672;6.076;2022-10-31T11:54:25;4.22;;;2.72;;
24137;SDS011;17947;50.672;6.076;2022-10-31T11:56:52;3.45;;;2.72;;
24137;SDS011;17947;50.672;6.076;2022-10-31T11:59:21;3.13;;;2.78;;
24137;SDS011;17947;50.672;6.076;2022-10-31T12:01:48;3.42;;;2.80;;
24137;SDS011;17947;50.672;6.076;2022-10-31T12:04:15;2.97;;;2.50;;
24137;SDS011;17947;50.672;6.076;2022-10-31T12:06:42;3.72;;;2.78;;
24137;SDS011;17947;50.672;6.076;2022-10-31T12:09:18;5.28;;;2.67;;
24137;SDS011;17947;50.672;6.076;2022-10-31T12:14:14;2.80;;;2.50;;
24137;SDS011;17947;50.672;6.076;2022-10-31T12:16:48;3.60;;;2.60;;
24137;SDS011;17947;50.672;6.076;2022-10-31T12:19:25;2.60;;;2.40;;
24137;SDS011;17947;50.672;6.076;2022-10-31T13:01:33;2.90;;;2.35;;
24137;SDS011;17947;50.672;6.076;2022-10-31T13:06:53;3.67;;;2.60;;
24137;SDS011;17947;50.672;6.076;2022-10-31T13:09:26;3.10;;;2.50;;
24137;SDS011;17947;50.672;6.076;2022-10-31T13:11:58;4.05;;;2.80;;
24137;SDS011;17947;50.672;6.076;2022-10-31T13:14:36;3.50;;;2.55;;
24137;SDS011;17947;50.672;6.076;2022-10-31T13:17:03;3.75;;;2.83;;
24137;SDS011;17947;50.672;6.076;2022-10-31T13:19:38;3.72;;;2.60;;
24137;SDS011;17947;50.672;6.076;2022-10-31T13:22:06;3.25;;;2.63;;
24137;SDS011;17947;50.672;6.076;2022-10-31T13:24:39;3.53;;;2.40;;
24137;SDS011;17947;50.672;6.076;2022-10-31T13:27:51;3.90;;;2.80;;
24137;SDS011;17947;50.672;6.076;2022-10-31T13:29:58;3.65;;;2.55;;
24137;SDS011;17947;50.672;6.076;2022-10-31T13:32:27;3.00;;;2.40;;
24137;SDS011;17947;50.672;6.076;2022-10-31T13:34:55;4.13;;;2.83;;
24137;SDS011;17947;50.672;6.076;2022-10-31T13:37:35;2.97;;;2.50;;
24137;SDS011;17947;50.672;6.076;2022-10-31T13:45:18;3.28;;;2.45;;
24137;SDS011;17947;50.672;6.076;2022-10-31T13:47:54;4.03;;;2.75;;
24137;SDS011;17947;50.672;6.076;2022-10-31T13:50:21;2.80;;;2.50;;
24137;SDS011;17947;50.672;6.076;2022-10-31T13:52:48;2.10;;;1.90;;
24137;SDS011;17947;50.672;6.076;2022-10-31T13:57:58;2.95;;;2.25;;
24137;SDS011;17947;50.672;6.076;2022-10-31T14:00:25;3.53;;;2.20;;
24137;SDS011;17947;50.672;6.076;2022-10-31T14:02:53;3.17;;;2.45;;
24137;SDS011;17947;50.672;6.076;2022-10-31T14:05:27;2.83;;;2.40;;
24137;SDS011;17947;50.672;6.076;2022-10-31T14:07:55;3.00;;;2.30;;
24137;SDS011;17947;50.672;6.076;2022-10-31T14:10:25;2.92;;;2.20;;
24137;SDS011;17947;50.672;6.076;2022-10-31T14:12:52;3.10;;;2.50;;
24137;SDS011;17947;50.672;6.076;2022-10-31T14:17:53;3.65;;;2.30;;
24137;SDS011;17947;50.672;6.076;2022-10-31T14:25:46;3.25;;;2.72;;
24137;SDS011;17947;50.672;6.076;2022-10-31T14:28:20;3.25;;;2.50;;
24137;SDS011;17947;50.672;6.076;2022-10-31T14:30:53;2.25;;;2.05;;
24137;SDS011;17947;50.672;6.076;2022-10-31T14:33:24;3.20;;;2.40;;
24137;SDS011;17947;50.672;6.076;2022-10-31T14:36:11;2.95;;;2.17;;
24137;SDS011;17947;50.672;6.076;2022-10-31T14:38:57;3.05;;;2.42;;
24137;SDS011;17947;50.672;6.076;2022-10-31T14:51:46;3.50;;;2.08;;
24137;SDS011;17947;50.672;6.076;2022-10-31T14:54:14;2.97;;;2.45;;
24137;SDS011;17947;50.672;6.076;2022-10-31T14:56:49;2.35;;;2.00;;
24137;SDS011;17947;50.672;6.076;2022-10-31T14:59:17;4.10;;;2.38;;
24137;SDS011;17947;50.672;6.076;2022-10-31T15:01:51;2.70;;;2.30;;
24137;SDS011;17947;50.672;6.076;2022-10-31T15:04:20;3.22;;;2.30;;
24137;SDS011;17947;50.672;6.076;2022-10-31T15:06:50;2.45;;;2.13;;
24137;SDS011;17947;50.672;6.076;2022-10-31T15:09:24;2.67;;;2.10;;
24137;SDS011;17947;50.672;6.076;2022-10-31T15:11:50;3.60;;;2.50;;
24137;SDS011;17947;50.672;6.076;2022-10-31T15:14:24;3.53;;;2.30;;
24137;SDS011;17947;50.672;6.076;2022-10-31T15:16:50;2.97;;;2.40;;
24137;SDS011;17947;50.672;6.076;2022-10-31T15:19:20;2.53;;;2.05;;
24137;SDS011;17947;50.672;6.076;2022-10-31T15:21:46;3.22;;;2.20;;
24137;SDS011;17947;50.672;6.076;2022-10-31T15:24:13;3.33;;;2.30;;
24137;SDS011;17947;50.672;6.076;2022-10-31T15:26:52;3.08;;;2.20;;
24137;SDS011;17947;50.672;6.076;2022-10-31T15:29:20;2.90;;;2.20;;
24137;SDS011;17947;50.672;6.076;2022-10-31T15:31:50;3.22;;;2.42;;
24137;SDS011;17947;50.672;6.076;2022-10-31T15:36:58;2.90;;;2.25;;
24137;SDS011;17947;50.672;6.076;2022-10-31T15:39:24;2.90;;;2.40;;
24137;SDS011;17947;50.672;6.076;2022-10-31T15:41:51;3.42;;;2.80;;
24137;SDS011;17947;50.672;6.076;2022-10-31T15:46:44;3.42;;;2.42;;
24137;SDS011;17947;50.672;6.076;2022-10-31T15:49:23;2.85;;;2.55;;
24137;SDS011;17947;50.672;6.076;2022-10-31T15:51:51;3.10;;;2.35;;
24137;SDS011;17947;50.672;6.076;2022-10-31T15:54:18;3.90;;;2.10;;
24137;SDS011;17947;50.672;6.076;2022-10-31T15:56:44;3.15;;;2.17;;
24137;SDS011;17947;50.672;6.076;2022-10-31T15:59:11;2.90;;;2.20;;
24137;SDS011;17947;50.672;6.076;2022-10-31T16:01:42;3.08;;;2.10;;
24137;SDS011;17947;50.672;6.076;2022-10-31T16:06:36;2.58;;;2.28;;
24137;SDS011;17947;50.672;6.076;2022-10-31T16:09:02;2.85;;;2.35;;
24137;SDS011;17947;50.672;6.076;2022-10-31T16:11:33;2.50;;;2.08;;
24137;SDS011;17947;50.672;6.076;2022-10-31T16:14:01;2.28;;;1.92;;
24137;SDS011;17947;50.672;6.076;2022-10-31T16:16:28;2.78;;;2.22;;
24137;SDS011;17947;50.672;6.076;2022-10-31T16:18:54;2.60;;;1.98;;
24137;SDS011;17947;50.672;6.076;2022-10-31T16:21:35;2.28;;;1.92;;
24137;SDS011;17947;50.672;6.076;2022-10-31T16:24:11;3.47;;;1.95;;
24137;SDS011;17947;50.672;6.076;2022-10-31T16:26:40;3.53;;;2.13;;
24137;SDS011;17947;50.672;6.076;2022-10-31T16:32:27;4.13;;;2.35;;
24137;SDS011;17947;50.672;6.076;2022-10-31T16:34:57;2.30;;;2.10;;
24137;SDS011;17947;50.672;6.076;2022-10-31T16:37:24;3.75;;;2.00;;
24137;SDS011;17947;50.672;6.076;2022-10-31T16:39:49;3.05;;;2.03;;
24137;SDS011;17947;50.672;6.076;2022-10-31T16:42:15;3.60;;;2.20;;
24137;SDS011;17947;50.672;6.076;2022-10-31T16:44:42;2.90;;;2.22;;
24137;SDS011;17947;50.672;6.076;2022-10-31T16:47:13;2.70;;;2.20;;
24137;SDS011;17947;50.672;6.076;2022-10-31T16:49:39;2.78;;;2.13;;
24137;SDS011;17947;50.672;6.076;2022-10-31T16:52:05;2.45;;;2.00;;
24137;SDS011;17947;50.672;6.076;2022-10-31T16:54:31;2.63;;;2.13;;
24137;SDS011;17947;50.672;6.076;2022-10-31T16:56:58;3.65;;;2.60;;
24137;SDS011;17947;50.672;6.076;2022-10-31T16:59:24;2.88;;;2.00;;
24137;SDS011;17947;50.672;6.076;2022-10-31T17:01:51;3.88;;;2.33;;
24137;SDS011;17947;50.672;6.076;2022-10-31T17:04:18;3.20;;;1.98;;
24137;SDS011;17947;50.672;6.076;2022-10-31T17:06:44;2.75;;;2.03;;
24137;SDS011;17947;50.672;6.076;2022-10-31T17:09:10;2.25;;;1.92;;
24137;SDS011;17947;50.672;6.076;2022-10-31T17:11:36;2.92;;;2.25;;
24137;SDS011;17947;50.672;6.076;2022-10-31T17:14:04;3.28;;;2.47;;
24137;SDS011;17947;50.672;6.076;2022-10-31T17:16:31;3.58;;;2.25;;
24137;SDS011;17947;50.672;6.076;2022-10-31T17:18:57;2.78;;;2.08;;
24137;SDS011;17947;50.672;6.076;2022-10-31T17:21:23;2.67;;;2.03;;
24137;SDS011;17947;50.672;6.076;2022-10-31T17:23:51;3.50;;;2.30;;
24137;SDS011;17947;50.672;6.076;2022-10-31T17:26:18;3.40;;;2.25;;
24137;SDS011;17947;50.672;6.076;2022-10-31T17:28:44;2.83;;;2.35;;
24137;SDS011;17947;50.672;6.076;2022-10-31T17:31:20;2.30;;;2.10;;